• Join FlightAware (Why Join?)
  • Login
  • US Flag 
11:10PM EDT


 

Airport Tracker/Info


-or-


 

Live Flight TrackerFlight Track Log ✈ VH-BDP ✈ 02-Dec-2013 ✈ YPJT / JAD - YMDN

Flight Track Log - Related Links

Times and Time Zones

All times are in EST time to prevent confusion due to time zone crossing. See the VH-BDP flight status page for this flight to view local times or setup timezone preferences in your user account.

Time Position Orientation Groundspeed Altitude Reporting Facility
EST Latitude Longitude Course Direction KTS MPH feet Rate Location/Type
10:18AM -32.0583 115.7417 58° Northeast 3,900  Level Aus ATC (Calculated)
10:20AM -32.0420 115.7728 58° Northeast  Level FlightAware Approximate
10:21AM -32.0320 115.7919 58° Northeast  Level FlightAware Approximate
10:21AM -31.9993 115.8543 360° North 5,500  Level Aus ATC (Calculated)
10:22AM -31.9993 115.8543 58° Northeast 5,500  Level Aus ATC (Calculated)
10:23AM -31.9697 115.9106 360° North 5,500  Level Aus ATC (Calculated)
10:23AM -31.9697 115.9106 58° Northeast 5,500  Level Aus ATC (Calculated)
10:25AM -31.9549 115.9388 58° Northeast  Level FlightAware Approximate
10:26AM -31.9445 115.9587 58° Northeast  Level FlightAware Approximate
10:27AM -31.9340 115.9786 58° Northeast  Level FlightAware Approximate
10:27AM -31.9207 116.0452 79° East 5,500  Level Aus ATC (Calculated)
10:29AM -31.9144 116.0835 74° East  Level Estimated
10:29AM -31.9011 116.1236 360° North 5,500  Level Aus ATC (Calculated)
10:29AM -31.9011 116.1236 74° East 5,500  Level Aus ATC (Calculated)
10:30AM -31.8955 116.1460 74° East  Level FlightAware Approximate
10:31AM -31.8906 116.1654 74° East  Level FlightAware Approximate
10:32AM -31.8850 116.1879 74° East  Level FlightAware Approximate
10:32AM -31.8618 116.2801 254° West 5,500  Level Aus ATC (Calculated)
10:33AM -31.8794 116.2103 74° East  Level FlightAware Approximate
10:34AM -31.8522 116.3184 74° East  Level FlightAware Approximate
10:35AM -31.8465 116.3412 73° East  Level FlightAware Approximate
10:36AM -31.8407 116.3639 73° East  Level FlightAware Approximate
10:36AM -31.8224 116.4365 360° North 5,500  Level Aus ATC (Calculated)
10:37AM -31.8224 116.4365 360° North 5,500  Level Aus ATC (Calculated)
10:37AM -31.8224 116.4365 73° East 5,500  Level Aus ATC (Calculated)
10:39AM -31.8140 116.4696 73° East  Level FlightAware Approximate
10:40AM -31.8081 116.4927 73° East  Level FlightAware Approximate
10:40AM -31.7827 116.5928 73° East 5,500  Level Aus ATC (Calculated)
10:42AM -31.7724 116.6336 73° East  Level FlightAware Approximate
10:43AM -31.7665 116.6566 73° East  Level FlightAware Approximate
10:44AM -31.7606 116.6797 73° East  Level FlightAware Approximate
10:45AM -31.7547 116.7027 73° East  Level FlightAware Approximate
10:46AM -31.7488 116.7258 73° East  Level FlightAware Approximate
10:47AM -31.7429 116.7488 73° East  Level FlightAware Approximate
10:48AM -31.7370 116.7719 73° East  Level FlightAware Approximate
10:49AM -31.7311 116.7949 73° East  Level FlightAware Approximate
10:50AM -31.7252 116.8179 73° East  Level FlightAware Approximate
10:51AM -31.7193 116.8410 73° East  Level FlightAware Approximate
10:51AM -31.6626 117.0609 73° East 5,500  Level Aus ATC (Calculated)
10:53AM -31.6520 117.1019 73° East  Level FlightAware Approximate
10:54AM -31.6460 117.1249 73° East  Level FlightAware Approximate
10:55AM -31.6401 117.1479 73° East  Level FlightAware Approximate
10:56AM -31.6341 117.1709 73° East  Level FlightAware Approximate
10:57AM -31.6282 117.1939 73° East  Level FlightAware Approximate
10:57AM -31.6163 117.2857 264° West  Level Aus ATC (Calculated)
10:59AM -31.6195 117.2491 264° West  Level FlightAware Approximate
11:00AM -31.6215 117.2252 264° West  Level FlightAware Approximate
11:01AM -31.6235 117.2012 264° West  Level FlightAware Approximate
11:02AM -31.6215 117.2252 84° East  Level FlightAware Approximate
11:03AM -31.6235 117.2012 264° West  Level FlightAware Approximate
11:04AM -31.6215 117.2252 84° East  Level FlightAware Approximate
11:05AM -31.6235 117.2012 264° West  Level FlightAware Approximate
11:06AM -31.6215 117.2252 84° East  Level FlightAware Approximate
11:07AM -31.6235 117.2012 264° West  Level FlightAware Approximate
11:08AM -31.6215 117.2252 84° East  Level FlightAware Approximate
11:09AM -31.6235 117.2012 264° West  Level FlightAware Approximate
11:10AM -31.6215 117.2252 84° East  Level FlightAware Approximate
11:11AM -31.6235 117.2012 264° West  Level FlightAware Approximate
11:12AM -31.6215 117.2252 84° East  Level FlightAware Approximate
11:13AM -31.6235 117.2012 264° West  Level FlightAware Approximate
11:14AM -31.6215 117.2252 84° East  Level FlightAware Approximate
11:15AM -31.6235 117.2012 264° West  Level FlightAware Approximate
11:16AM -31.6215 117.2252 84° East  Level FlightAware Approximate
11:17AM -31.6235 117.2012 264° West  Level FlightAware Approximate
11:18AM -31.6215 117.2252 84° East  Level FlightAware Approximate
11:18AM -31.5426 118.1138 264° West  Level Aus ATC (Calculated)
11:19AM -31.6235 117.2012 264° West  Level FlightAware Approximate
11:20AM -31.5456 118.0815 264° West  Level FlightAware Approximate
11:21AM -31.5478 118.0577 264° West  Level FlightAware Approximate
11:22AM -31.5500 118.0338 264° West  Level FlightAware Approximate
11:23AM -31.5522 118.0099 264° West  Level FlightAware Approximate
11:24AM -31.5501 118.0338 74° East  Level Estimated
11:25AM -31.5481 118.0577 74° East  Level Estimated